createdAt,value
2019-03-01T00:02:47.290Z,98885.53
2019-03-01T00:13:15.927Z,98880.33
2019-03-01T00:23:40.009Z,98879.30
2019-03-01T00:34:07.903Z,98880.81
2019-03-01T00:44:18.527Z,98864.23
2019-03-01T00:54:19.572Z,98847.59
2019-03-01T01:04:20.633Z,98844.88
2019-03-01T01:14:21.621Z,98833.56
2019-03-01T01:24:22.416Z,98817.06
2019-03-01T01:34:23.153Z,98806.15
2019-03-01T01:44:24.336Z,98779.86
2019-03-01T01:54:26.032Z,98767.42
2019-03-01T02:04:26.986Z,98771.81
2019-03-01T02:14:27.684Z,98764.13
2019-03-01T02:24:28.637Z,98753.67
2019-03-01T02:34:29.611Z,98751.91
2019-03-01T02:44:30.629Z,98739.70
2019-03-01T02:54:31.613Z,98724.42
2019-03-01T03:04:32.754Z,98715.00
2019-03-01T03:14:33.458Z,98701.80
2019-03-01T03:24:35.344Z,98691.37
2019-03-01T03:34:36.080Z,98684.86
2019-03-01T03:44:37.083Z,98678.34
2019-03-01T03:54:37.813Z,98674.42
2019-03-01T04:04:38.475Z,98659.13
2019-03-01T04:14:39.242Z,98657.20
2019-03-01T04:24:40.226Z,98651.68
2019-03-01T04:34:41.225Z,98639.34
2019-03-01T04:44:41.944Z,98643.08
2019-03-01T04:54:45.449Z,98624.35
2019-03-01T05:04:52.792Z,98629.22
2019-03-01T05:15:05.675Z,98626.48
2019-03-01T05:25:19.897Z,98619.33
2019-03-01T05:35:16.540Z,98617.72
2019-03-01T05:45:26.202Z,98609.41
2019-03-01T05:55:27.154Z,98612.02
2019-03-01T06:05:27.980Z,98614.95
2019-03-01T06:15:48.078Z,98607.95
2019-03-01T06:26:09.230Z,98604.84
2019-03-01T06:36:22.771Z,98613.96
2019-03-01T06:46:39.285Z,98610.72
2019-03-01T06:56:40.037Z,98620.78
2019-03-01T07:06:40.874Z,98618.66
2019-03-01T07:16:41.505Z,98614.45
2019-03-01T07:26:43.920Z,98618.56
2019-03-01T07:36:44.969Z,98617.39
2019-03-01T07:46:53.220Z,98633.34
2019-03-01T07:56:53.484Z,98658.50
2019-03-01T08:06:54.646Z,98669.61
2019-03-01T08:16:56.057Z,98675.48
2019-03-01T08:26:59.198Z,98682.33
2019-03-01T08:37:02.470Z,98685.25
2019-03-01T08:47:06.930Z,98691.07
2019-03-01T08:57:07.700Z,98694.60
2019-03-01T09:07:08.640Z,98706.64
2019-03-01T09:17:09.633Z,98709.25
2019-03-01T09:27:10.476Z,98721.63
2019-03-01T09:37:11.466Z,98710.75
2019-03-01T09:47:12.462Z,98730.45
2019-03-01T09:57:15.614Z,98734.85
2019-03-01T10:07:16.084Z,98748.21
2019-03-01T10:17:16.841Z,98765.80
2019-03-01T10:27:17.746Z,98779.48
2019-03-01T10:37:18.755Z,98789.95
2019-03-01T10:47:19.999Z,98793.81
2019-03-01T10:57:20.706Z,98805.48
2019-03-01T11:07:21.616Z,98813.92
2019-03-01T11:17:22.290Z,98821.08
2019-03-01T11:27:23.168Z,98833.10
2019-03-01T11:37:24.068Z,98839.18
2019-03-01T11:47:25.643Z,98853.17
2019-03-01T11:57:26.322Z,98855.52
2019-03-01T12:07:27.052Z,98858.28
2019-03-01T12:17:27.807Z,98864.81
2019-03-01T12:27:28.735Z,98863.52
2019-03-01T12:37:29.408Z,98871.67
2019-03-01T12:47:30.144Z,98887.05
2019-03-01T12:57:30.812Z,98899.70
2019-03-01T13:07:31.638Z,98902.16
2019-03-01T13:17:33.758Z,98916.40
2019-03-01T13:27:39.448Z,98923.75
2019-03-01T13:37:40.119Z,98917.21
2019-03-01T13:47:43.947Z,98925.73
2019-03-01T13:57:46.003Z,98948.81
2019-03-01T14:07:55.127Z,98955.51
2019-03-01T14:17:51.894Z,98967.50
2019-03-01T14:27:56.582Z,98969.20
2019-03-01T14:38:00.503Z,98978.74
2019-03-01T14:48:01.234Z,98989.63
2019-03-01T14:58:31.026Z,98991.77
2019-03-01T15:08:31.860Z,99006.86
2019-03-01T15:29:14.486Z,99020.91
2019-03-01T15:39:16.673Z,99017.68
2019-03-01T15:49:23.721Z,99023.34
2019-03-01T15:59:28.316Z,99035.79
2019-03-01T16:09:29.337Z,99038.48
2019-03-01T16:19:50.430Z,99054.95
2019-03-01T16:29:51.090Z,99064.29
2019-03-01T16:39:56.155Z,99080.84
2019-03-01T16:49:58.939Z,99096.16
2019-03-01T16:59:59.839Z,99118.63
2019-03-01T17:10:00.556Z,99129.10
2019-03-01T17:20:07.313Z,99127.66
2019-03-01T17:30:17.839Z,99141.47
2019-03-01T17:40:19.069Z,99142.30
2019-03-01T17:50:19.763Z,99163.28
2019-03-01T18:00:26.662Z,99170.17
2019-03-01T18:10:28.726Z,99186.98
2019-03-01T18:20:30.316Z,99195.70
2019-03-01T18:30:32.655Z,99188.80
2019-03-01T18:40:33.591Z,99201.95
2019-03-01T18:50:38.410Z,99217.75
2019-03-01T19:00:41.650Z,99241.31
2019-03-01T19:10:42.347Z,99254.77
2019-03-01T19:20:46.925Z,99250.75
2019-03-01T19:30:49.045Z,99251.58
2019-03-01T19:40:50.279Z,99257.22
2019-03-01T19:50:50.985Z,99266.30
2019-03-01T20:00:51.635Z,99271.92
2019-03-01T20:10:52.529Z,99276.45
2019-03-01T20:20:53.413Z,99285.50
2019-03-01T20:30:54.099Z,99289.73
2019-03-01T20:40:54.848Z,99286.97
2019-03-01T20:50:55.766Z,99297.92
2019-03-01T21:00:58.829Z,99304.66
2019-03-01T21:11:00.309Z,99299.85
2019-03-01T21:21:01.004Z,99305.27
2019-03-01T21:31:02.037Z,99309.58
2019-03-01T21:41:02.764Z,99309.07
2019-03-01T21:51:03.670Z,99300.08
2019-03-01T22:01:05.824Z,99297.31
2019-03-01T22:11:06.935Z,99307.34
2019-03-01T22:21:33.998Z,99306.30
2019-03-01T22:31:35.463Z,99305.52
2019-03-01T22:41:39.326Z,99317.78
2019-03-01T22:51:39.301Z,99321.89
2019-03-01T23:01:40.246Z,99327.02
2019-03-01T23:11:41.259Z,99317.69
2019-03-01T23:21:42.037Z,99323.89
2019-03-01T23:31:43.021Z,99312.66
2019-03-01T23:41:46.394Z,99314.75
2019-03-01T23:51:47.055Z,99314.78
